createdAt,value
2022-12-24T00:00:08.901Z,10.80
2022-12-24T00:02:44.454Z,10.90
2022-12-24T00:05:11.297Z,11.00
2022-12-24T00:07:40.071Z,11.00
2022-12-24T00:10:08.509Z,11.00
2022-12-24T00:12:54.282Z,11.00
2022-12-24T00:15:26.200Z,11.00
2022-12-24T00:17:52.850Z,10.90
2022-12-24T00:22:54.797Z,10.90
2022-12-24T00:27:57.860Z,11.00
2022-12-24T00:30:28.495Z,10.90
2022-12-24T00:32:55.290Z,10.90
2022-12-24T00:35:22.483Z,10.90
2022-12-24T00:37:50.761Z,10.90
2022-12-24T00:40:31.148Z,10.80
2022-12-24T00:42:57.981Z,10.90
2022-12-24T00:47:59.983Z,10.90
2022-12-24T00:50:28.668Z,11.00
2022-12-24T00:52:55.771Z,10.90
2022-12-24T00:55:26.534Z,10.80
2022-12-24T00:57:53.259Z,10.80
2022-12-24T01:02:55.609Z,10.90
2022-12-24T01:05:27.789Z,10.90
2022-12-24T01:07:54.820Z,10.90
2022-12-24T01:10:26.067Z,10.90
2022-12-24T01:12:53.872Z,10.80
2022-12-24T01:18:14.178Z,10.80
2022-12-24T01:20:54.928Z,10.80
2022-12-24T01:23:23.008Z,10.90
2022-12-24T01:26:12.693Z,10.80
2022-12-24T01:28:41.088Z,10.80
2022-12-24T01:31:13.152Z,10.80
2022-12-24T01:33:41.065Z,10.90
2022-12-24T01:36:11.194Z,10.80
2022-12-24T01:38:45.005Z,10.90
2022-12-24T01:41:40.715Z,10.90
2022-12-24T01:44:19.116Z,10.80
2022-12-24T01:46:51.848Z,10.80
2022-12-24T01:49:19.124Z,10.80
2022-12-24T01:51:48.012Z,10.90
2022-12-24T01:57:10.801Z,10.80
2022-12-24T01:59:38.789Z,10.80
2022-12-24T02:02:11.890Z,10.80
2022-12-24T02:05:06.097Z,10.80
2022-12-24T02:07:34.846Z,10.80
2022-12-24T02:10:06.439Z,10.70
2022-12-24T02:12:43.954Z,10.60
2022-12-24T02:15:13.633Z,10.60
2022-12-24T02:17:57.413Z,10.60
2022-12-24T02:20:59.120Z,10.60
2022-12-24T02:23:38.701Z,10.60
2022-12-24T02:26:44.887Z,10.60
2022-12-24T02:29:20.475Z,10.70
2022-12-24T02:32:13.201Z,10.70
2022-12-24T02:34:43.961Z,10.80
2022-12-24T02:37:33.033Z,10.70
2022-12-24T02:40:16.119Z,10.60
2022-12-24T02:42:48.264Z,10.70
2022-12-24T02:45:21.850Z,10.60
2022-12-24T02:50:30.801Z,10.60
2022-12-24T02:52:58.633Z,10.80
2022-12-24T02:55:56.168Z,10.60
2022-12-24T03:01:33.730Z,10.70
2022-12-24T03:12:07.796Z,10.70
2022-12-24T03:14:35.354Z,10.80
2022-12-24T03:17:08.926Z,10.80
2022-12-24T03:19:36.097Z,10.90
2022-12-24T03:22:05.706Z,10.90
2022-12-24T03:24:32.734Z,10.90
2022-12-24T03:27:05.604Z,9.20
2022-12-24T03:29:35.845Z,10.90
2022-12-24T03:32:04.731Z,11.00
2022-12-24T03:34:32.961Z,11.00
2022-12-24T03:37:18.212Z,10.90
2022-12-24T03:40:04.903Z,11.00
2022-12-24T03:42:32.044Z,11.00
2022-12-24T03:44:59.012Z,11.00
2022-12-24T03:47:26.937Z,11.00
2022-12-24T03:49:58.824Z,11.00
2022-12-24T03:52:25.874Z,10.90
2022-12-24T03:57:27.839Z,10.90
2022-12-24T03:59:54.806Z,10.80
2022-12-24T04:02:22.187Z,10.80
2022-12-24T04:04:49.387Z,10.90
2022-12-24T04:07:18.451Z,10.90
2022-12-24T04:09:45.470Z,10.90
2022-12-24T04:12:12.579Z,10.90
2022-12-24T04:14:39.542Z,10.80
2022-12-24T04:17:15.798Z,10.70
2022-12-24T04:19:49.680Z,10.60
2022-12-24T04:22:24.908Z,10.60
2022-12-24T04:24:52.738Z,10.60
2022-12-24T04:27:19.365Z,10.50
2022-12-24T04:29:50.174Z,10.50
2022-12-24T04:32:19.330Z,10.50
2022-12-24T04:34:48.300Z,10.50
2022-12-24T04:37:15.009Z,10.40
2022-12-24T04:39:41.973Z,10.40
2022-12-24T04:42:09.046Z,10.30
2022-12-24T04:44:36.106Z,10.30
2022-12-24T04:47:04.820Z,10.30
2022-12-24T04:49:36.718Z,10.30
2022-12-24T04:52:11.137Z,10.30
2022-12-24T04:54:37.836Z,10.20
2022-12-24T04:57:04.862Z,10.40
2022-12-24T04:59:34.782Z,10.40
2022-12-24T05:02:01.587Z,10.40
2022-12-24T05:04:28.465Z,10.40
2022-12-24T05:06:55.526Z,11.00
2022-12-24T05:09:24.331Z,10.50
2022-12-24T05:11:56.744Z,10.30
2022-12-24T05:14:31.409Z,10.40
2022-12-24T05:16:58.242Z,10.50
2022-12-24T05:19:26.325Z,10.40
2022-12-24T05:22:16.718Z,10.40
2022-12-24T05:25:02.230Z,10.50
2022-12-24T05:33:02.145Z,10.50
2022-12-24T05:35:28.840Z,10.70
2022-12-24T05:37:59.519Z,10.70
2022-12-24T05:40:39.424Z,11.30
2022-12-24T05:43:06.447Z,10.60
2022-12-24T05:45:37.572Z,10.70
2022-12-24T05:50:40.257Z,10.60
2022-12-24T05:53:08.490Z,10.60
2022-12-24T05:58:25.586Z,10.50
2022-12-24T06:00:58.413Z,10.60
2022-12-24T06:03:33.870Z,10.70
2022-12-24T06:06:14.353Z,10.60
2022-12-24T06:08:41.987Z,10.60
2022-12-24T06:11:19.589Z,10.60
2022-12-24T06:13:48.819Z,10.60
2022-12-24T06:16:56.771Z,10.70
2022-12-24T06:19:23.781Z,10.70
2022-12-24T06:22:06.065Z,10.70
2022-12-24T06:24:38.519Z,10.50
2022-12-24T06:27:06.526Z,10.60
2022-12-24T06:32:12.552Z,10.60
2022-12-24T06:34:39.363Z,10.60
2022-12-24T06:37:08.840Z,10.60
2022-12-24T06:39:36.740Z,10.60
2022-12-24T06:42:03.803Z,10.60
2022-12-24T06:44:35.736Z,10.50
2022-12-24T06:47:04.569Z,10.50
2022-12-24T06:49:43.365Z,10.50
2022-12-24T06:52:14.518Z,10.40
2022-12-24T06:54:41.526Z,10.30
2022-12-24T06:57:13.495Z,10.40
2022-12-24T06:59:46.307Z,10.40
2022-12-24T07:04:48.663Z,10.50
2022-12-24T07:07:22.578Z,10.40
2022-12-24T07:09:51.288Z,10.50
2022-12-24T07:12:17.939Z,10.60
2022-12-24T07:14:51.516Z,10.50
2022-12-24T07:17:20.340Z,10.60
2022-12-24T07:19:47.226Z,10.60
2022-12-24T07:22:15.956Z,10.40
2022-12-24T07:24:56.515Z,10.40
2022-12-24T07:28:04.048Z,10.30
2022-12-24T07:30:59.091Z,10.30
2022-12-24T07:33:30.163Z,10.30
2022-12-24T07:36:29.225Z,10.10
2022-12-24T07:39:09.339Z,10.20
2022-12-24T07:44:18.253Z,10.10
2022-12-24T07:46:46.073Z,10.20
2022-12-24T07:49:13.073Z,10.20
2022-12-24T07:51:40.970Z,10.20
2022-12-24T07:54:07.682Z,10.30
2022-12-24T07:56:34.829Z,10.30
2022-12-24T07:59:17.258Z,10.30
2022-12-24T08:01:47.328Z,10.30
2022-12-24T08:04:14.215Z,10.20
2022-12-24T08:06:42.067Z,10.20
2022-12-24T08:09:30.976Z,10.30
2022-12-24T08:12:04.794Z,10.30
2022-12-24T08:14:39.819Z,10.30
2022-12-24T08:17:07.524Z,10.30
2022-12-24T08:19:34.550Z,10.30
2022-12-24T08:22:07.263Z,10.40
2022-12-24T08:24:38.125Z,10.50
2022-12-24T08:27:05.133Z,10.40
2022-12-24T08:29:40.012Z,10.50
2022-12-24T08:32:09.074Z,10.40
2022-12-24T08:34:38.153Z,10.40
2022-12-24T08:37:31.893Z,10.50
2022-12-24T08:39:58.612Z,10.50
2022-12-24T08:42:25.553Z,10.60
2022-12-24T08:44:52.647Z,10.60
2022-12-24T08:47:19.636Z,10.80
2022-12-24T08:49:46.686Z,10.80
2022-12-24T08:52:19.480Z,10.90
2022-12-24T08:54:46.572Z,11.00
2022-12-24T08:57:22.572Z,11.00
2022-12-24T08:59:54.501Z,11.00
2022-12-24T09:02:30.497Z,11.10
2022-12-24T09:04:57.235Z,11.20
2022-12-24T09:07:26.347Z,11.20
2022-12-24T09:09:54.211Z,11.20
2022-12-24T09:12:43.410Z,11.20
2022-12-24T09:15:11.424Z,11.30
2022-12-24T09:17:39.779Z,11.30
2022-12-24T09:20:07.482Z,11.30
2022-12-24T09:22:39.188Z,11.50
2022-12-24T09:25:07.384Z,11.40
2022-12-24T09:27:34.579Z,11.30
2022-12-24T09:30:01.359Z,11.40
2022-12-24T09:35:03.796Z,11.50
2022-12-24T09:37:30.733Z,11.80
2022-12-24T09:40:03.528Z,11.90
2022-12-24T09:42:42.368Z,11.70
2022-12-24T09:45:20.982Z,11.60
2022-12-24T09:48:05.553Z,11.60
2022-12-24T09:50:40.511Z,11.70
2022-12-24T09:53:17.134Z,11.60
2022-12-24T09:56:33.379Z,11.60
2022-12-24T10:01:42.609Z,11.50
2022-12-24T10:04:20.133Z,11.50
2022-12-24T10:07:27.962Z,11.70
2022-12-24T10:10:07.192Z,11.70
2022-12-24T10:12:52.876Z,11.80
2022-12-24T10:15:46.721Z,11.80
2022-12-24T10:18:24.873Z,11.80
2022-12-24T10:21:38.217Z,11.80
2022-12-24T10:24:12.846Z,11.70
2022-12-24T10:27:04.827Z,11.80
2022-12-24T10:29:37.256Z,11.70
2022-12-24T10:32:23.472Z,11.70
2022-12-24T10:35:00.317Z,12.00
2022-12-24T10:37:29.729Z,12.10
2022-12-24T10:40:00.076Z,12.30
2022-12-24T10:42:38.321Z,12.50
2022-12-24T10:45:21.568Z,12.50
2022-12-24T10:47:52.760Z,12.80
2022-12-24T10:50:29.784Z,12.80
2022-12-24T10:53:42.635Z,12.60
2022-12-24T10:56:15.371Z,12.50
2022-12-24T10:58:46.836Z,12.50
2022-12-24T11:01:51.859Z,12.50
2022-12-24T11:04:19.661Z,12.60
2022-12-24T11:07:33.298Z,12.60
2022-12-24T11:10:22.575Z,12.60
2022-12-24T11:13:06.255Z,12.70
2022-12-24T11:15:39.192Z,13.00
2022-12-24T11:18:39.376Z,13.30
2022-12-24T11:24:03.844Z,13.80
2022-12-24T11:29:20.777Z,13.90
2022-12-24T11:34:35.248Z,13.90
2022-12-24T11:37:22.392Z,13.80
2022-12-24T11:39:54.123Z,14.00
2022-12-24T11:42:40.696Z,14.10
2022-12-24T11:45:24.398Z,14.00
2022-12-24T11:47:59.025Z,14.00
2022-12-24T11:50:36.608Z,14.20
2022-12-24T11:53:03.271Z,14.20
2022-12-24T11:56:06.579Z,14.50
2022-12-24T11:58:37.514Z,14.10
2022-12-24T12:01:58.974Z,13.70
2022-12-24T12:04:36.385Z,13.20
2022-12-24T12:07:20.738Z,13.10
2022-12-24T12:10:18.869Z,13.10
2022-12-24T12:13:15.061Z,13.20
2022-12-24T12:16:18.537Z,13.10
2022-12-24T12:18:58.159Z,13.10
2022-12-24T12:21:30.379Z,13.30
2022-12-24T12:24:05.890Z,13.40
2022-12-24T12:26:33.950Z,13.30
2022-12-24T12:29:11.080Z,13.30
2022-12-24T12:31:45.750Z,13.30
2022-12-24T12:34:15.496Z,13.10
2022-12-24T12:37:12.762Z,13.30
2022-12-24T12:39:44.677Z,13.40
2022-12-24T12:42:15.342Z,13.50
2022-12-24T12:45:04.117Z,13.70
2022-12-24T12:48:15.012Z,14.00
2022-12-24T12:50:55.119Z,14.30
2022-12-24T12:54:03.928Z,15.10
2022-12-24T12:56:54.842Z,15.80
2022-12-24T12:59:33.314Z,16.10
2022-12-24T13:02:38.168Z,16.40
2022-12-24T13:05:39.063Z,15.90
2022-12-24T13:09:03.244Z,15.50
2022-12-24T13:11:39.463Z,15.30
2022-12-24T13:14:16.728Z,15.40
2022-12-24T13:17:12.639Z,15.70
2022-12-24T13:20:01.160Z,16.00
2022-12-24T13:22:29.242Z,15.70
2022-12-24T13:24:56.877Z,15.40
2022-12-24T13:27:36.859Z,15.60
2022-12-24T13:30:47.651Z,15.60
2022-12-24T13:33:37.230Z,15.20
2022-12-24T13:36:08.039Z,14.80
2022-12-24T13:38:44.291Z,14.50
2022-12-24T13:41:40.092Z,14.30
2022-12-24T13:44:11.564Z,14.30
2022-12-24T13:46:47.712Z,13.90
2022-12-24T13:49:30.856Z,13.60
2022-12-24T13:52:13.015Z,13.60
2022-12-24T13:54:43.778Z,13.50
2022-12-24T13:57:46.277Z,13.50
2022-12-24T14:00:32.761Z,13.80
2022-12-24T14:03:23.544Z,14.10
2022-12-24T14:05:54.816Z,14.50
2022-12-24T14:08:24.569Z,14.50
2022-12-24T14:11:10.579Z,14.60
2022-12-24T14:13:47.815Z,14.80
2022-12-24T14:16:29.891Z,15.10
2022-12-24T14:19:16.252Z,14.90
2022-12-24T14:22:14.364Z,14.60
2022-12-24T14:25:06.923Z,14.80
2022-12-24T14:27:43.734Z,14.90
2022-12-24T14:30:28.154Z,14.50
2022-12-24T14:33:28.937Z,14.10
2022-12-24T14:38:45.889Z,13.90
2022-12-24T14:41:57.540Z,13.90
2022-12-24T14:44:40.160Z,13.80
2022-12-24T14:47:34.167Z,13.80
2022-12-24T14:50:53.124Z,13.80
2022-12-24T14:53:42.968Z,13.80
2022-12-24T14:56:23.235Z,13.70
2022-12-24T14:58:51.263Z,13.50
2022-12-24T15:01:27.603Z,13.40
2022-12-24T15:04:23.383Z,13.20
2022-12-24T15:06:57.704Z,13.10
2022-12-24T15:09:29.401Z,13.10
2022-12-24T15:12:00.268Z,13.00
2022-12-24T15:14:57.711Z,12.90
2022-12-24T15:17:26.995Z,12.80
2022-12-24T15:20:01.793Z,12.70
2022-12-24T15:22:42.473Z,12.50
2022-12-24T15:25:40.504Z,12.40
2022-12-24T15:28:20.790Z,12.40
2022-12-24T15:31:12.216Z,12.50
2022-12-24T15:33:47.862Z,12.40
2022-12-24T15:36:16.239Z,12.30
2022-12-24T15:39:02.840Z,12.30
2022-12-24T15:42:02.447Z,12.20
2022-12-24T15:45:01.827Z,12.00
2022-12-24T15:47:38.233Z,12.00
2022-12-24T15:50:33.586Z,11.80
2022-12-24T15:53:32.912Z,11.80
2022-12-24T15:56:27.239Z,11.80
2022-12-24T15:59:25.647Z,11.90
2022-12-24T16:01:52.722Z,11.90
2022-12-24T16:04:28.363Z,11.80
2022-12-24T16:07:03.116Z,11.70
2022-12-24T16:09:37.049Z,11.60
2022-12-24T16:12:04.615Z,11.60
2022-12-24T16:14:33.404Z,11.50
2022-12-24T16:17:00.220Z,11.40
2022-12-24T16:19:37.635Z,11.40
2022-12-24T16:22:25.784Z,11.40
2022-12-24T16:24:52.676Z,11.30
2022-12-24T16:27:19.497Z,11.40
2022-12-24T16:29:47.386Z,11.40
2022-12-24T16:32:35.154Z,11.40
2022-12-24T16:35:04.634Z,11.30
2022-12-24T16:37:31.363Z,11.20
2022-12-24T16:39:59.031Z,11.20
2022-12-24T16:42:44.649Z,11.10
2022-12-24T16:45:11.625Z,11.10
2022-12-24T16:47:42.901Z,11.00
2022-12-24T16:50:16.864Z,11.00
2022-12-24T16:52:43.737Z,11.00
2022-12-24T16:55:14.656Z,11.10
2022-12-24T16:57:42.909Z,11.10
2022-12-24T17:00:22.073Z,11.10
2022-12-24T17:02:50.273Z,11.10
2022-12-24T17:05:17.701Z,11.10
2022-12-24T17:07:45.043Z,11.10
2022-12-24T17:10:13.888Z,11.10
2022-12-24T17:12:41.004Z,11.00
2022-12-24T17:15:08.311Z,11.00
2022-12-24T17:17:35.697Z,10.90
2022-12-24T17:20:04.525Z,10.80
2022-12-24T17:22:31.495Z,10.80
2022-12-24T17:24:58.639Z,10.80
2022-12-24T17:27:26.436Z,10.80
2022-12-24T17:29:53.622Z,10.70
2022-12-24T17:32:20.568Z,10.80
2022-12-24T17:34:48.473Z,10.70
2022-12-24T17:37:16.241Z,10.60
2022-12-24T17:39:43.455Z,10.50
2022-12-24T17:42:10.331Z,10.50
2022-12-24T17:44:38.260Z,10.50
2022-12-24T17:47:05.484Z,10.50
2022-12-24T17:49:33.644Z,10.50
2022-12-24T17:52:00.647Z,10.50
2022-12-24T17:54:27.446Z,10.50
2022-12-24T17:56:54.268Z,10.50
2022-12-24T17:59:21.316Z,10.50
2022-12-24T18:01:48.499Z,10.40
2022-12-24T18:04:15.407Z,10.50
2022-12-24T18:06:48.750Z,10.50
2022-12-24T18:09:16.665Z,10.60
2022-12-24T18:11:44.503Z,10.50
2022-12-24T18:14:13.848Z,10.50
2022-12-24T18:16:42.119Z,10.50
2022-12-24T18:19:11.710Z,10.50
2022-12-24T18:21:39.198Z,10.50
2022-12-24T18:24:06.446Z,10.50
2022-12-24T18:26:33.433Z,10.40
2022-12-24T18:29:01.803Z,10.40
2022-12-24T18:31:29.721Z,10.40
2022-12-24T18:33:57.599Z,10.50
2022-12-24T18:36:25.058Z,10.50
2022-12-24T18:38:52.190Z,10.50
2022-12-24T18:41:22.268Z,10.50
2022-12-24T18:43:49.156Z,10.50
2022-12-24T18:46:20.192Z,10.50
2022-12-24T18:48:47.616Z,10.50
2022-12-24T18:51:14.717Z,10.50
2022-12-24T18:53:41.819Z,10.40
2022-12-24T18:56:15.799Z,10.50
2022-12-24T18:58:43.490Z,10.60
2022-12-24T19:01:18.126Z,10.60
2022-12-24T19:03:45.421Z,10.60
2022-12-24T19:06:12.216Z,10.50
2022-12-24T19:08:57.147Z,10.60
2022-12-24T19:11:26.470Z,10.60
2022-12-24T19:13:53.504Z,10.60
2022-12-24T19:16:21.367Z,10.50
2022-12-24T19:18:48.325Z,10.60
2022-12-24T19:21:17.322Z,10.60
2022-12-24T19:23:45.149Z,10.60
2022-12-24T19:26:13.356Z,10.60
2022-12-24T19:28:42.204Z,10.60
2022-12-24T19:31:11.710Z,10.60
2022-12-24T19:33:54.041Z,10.50
2022-12-24T19:36:23.875Z,10.50
2022-12-24T19:38:51.747Z,10.40
2022-12-24T19:41:25.940Z,10.40
2022-12-24T19:43:56.265Z,10.40
2022-12-24T19:46:25.930Z,10.40
2022-12-24T19:48:55.560Z,10.30
2022-12-24T19:51:23.725Z,10.40
2022-12-24T19:53:52.229Z,10.30
2022-12-24T19:56:20.988Z,10.30
2022-12-24T19:58:48.479Z,10.30
2022-12-24T20:01:24.750Z,10.40
2022-12-24T20:03:53.121Z,10.40
2022-12-24T20:06:22.781Z,10.50
2022-12-24T20:08:49.796Z,10.50
2022-12-24T20:11:19.597Z,10.60
2022-12-24T20:13:46.560Z,10.50
2022-12-24T20:16:17.202Z,10.60
2022-12-24T20:18:44.395Z,10.60
2022-12-24T20:21:12.183Z,10.60
2022-12-24T20:23:42.679Z,10.60
2022-12-24T20:26:13.404Z,10.60
2022-12-24T20:28:40.811Z,10.70
2022-12-24T20:31:20.502Z,10.70
2022-12-24T20:33:47.541Z,10.70
2022-12-24T20:36:17.205Z,10.70
2022-12-24T20:38:45.249Z,10.70
2022-12-24T20:41:15.182Z,10.70
2022-12-24T20:43:47.748Z,10.70
2022-12-24T20:46:17.448Z,10.80
2022-12-24T20:48:44.501Z,10.80
2022-12-24T20:51:23.665Z,10.90
2022-12-24T20:53:53.284Z,10.80
2022-12-24T20:56:20.691Z,11.00
2022-12-24T20:58:47.685Z,11.00
2022-12-24T21:01:26.638Z,11.10
2022-12-24T21:03:55.315Z,11.20
2022-12-24T21:06:24.287Z,11.10
2022-12-24T21:08:52.160Z,11.20
2022-12-24T21:11:40.269Z,11.30
2022-12-24T21:14:07.084Z,11.30
2022-12-24T21:16:35.491Z,11.30
2022-12-24T21:19:03.111Z,11.30
2022-12-24T21:21:30.322Z,11.20
2022-12-24T21:23:58.455Z,11.20
2022-12-24T21:26:25.494Z,11.20
2022-12-24T21:28:53.560Z,11.20
2022-12-24T21:31:22.064Z,11.20
2022-12-24T21:33:49.307Z,11.20
2022-12-24T21:36:17.132Z,11.30
2022-12-24T21:38:44.428Z,11.10
2022-12-24T21:41:13.838Z,11.10
2022-12-24T21:43:40.687Z,11.00
2022-12-24T21:46:22.967Z,10.90
2022-12-24T21:49:12.286Z,10.90
2022-12-24T21:51:39.848Z,10.80
2022-12-24T21:54:26.229Z,10.80
2022-12-24T21:57:14.340Z,10.80
2022-12-24T21:59:41.252Z,10.80
2022-12-24T22:02:11.839Z,10.70
2022-12-24T22:04:38.901Z,10.70
2022-12-24T22:07:25.768Z,10.70
2022-12-24T22:10:11.216Z,10.70
2022-12-24T22:12:38.087Z,10.70
2022-12-24T22:15:06.928Z,10.70
2022-12-24T22:17:33.813Z,10.70
2022-12-24T22:20:01.516Z,10.70
2022-12-24T22:22:28.395Z,10.70
2022-12-24T22:24:55.367Z,10.70
2022-12-24T22:27:23.546Z,10.70
2022-12-24T22:29:50.280Z,10.70
2022-12-24T22:32:16.998Z,10.70
2022-12-24T22:34:44.765Z,10.60
2022-12-24T22:37:11.431Z,10.70
2022-12-24T22:39:39.306Z,10.60
2022-12-24T22:42:06.355Z,10.70
2022-12-24T22:44:33.393Z,10.80
2022-12-24T22:47:00.536Z,10.90
2022-12-24T22:49:27.572Z,10.90
2022-12-24T22:51:57.429Z,10.90
2022-12-24T22:54:25.454Z,11.00
2022-12-24T22:56:52.333Z,11.00
2022-12-24T22:59:19.441Z,11.00
2022-12-24T23:01:47.738Z,11.00
2022-12-24T23:04:15.395Z,10.90
2022-12-24T23:06:43.542Z,11.00
2022-12-24T23:09:12.896Z,11.00
2022-12-24T23:11:43.961Z,11.00
2022-12-24T23:14:37.942Z,11.00
2022-12-24T23:17:06.123Z,10.90
2022-12-24T23:19:34.392Z,10.80
2022-12-24T23:22:02.877Z,10.80
2022-12-24T23:24:30.380Z,10.80
2022-12-24T23:27:01.317Z,10.90
2022-12-24T23:29:29.484Z,10.80
2022-12-24T23:31:56.406Z,10.90
2022-12-24T23:34:23.445Z,10.90
2022-12-24T23:36:51.420Z,10.90
2022-12-24T23:39:18.544Z,10.90
2022-12-24T23:41:45.475Z,10.90
2022-12-24T23:44:12.548Z,11.00
2022-12-24T23:46:39.616Z,11.00
2022-12-24T23:49:06.608Z,11.00
2022-12-24T23:51:33.690Z,11.00
2022-12-24T23:54:00.721Z,10.90
2022-12-24T23:56:27.784Z,10.90
2022-12-24T23:58:55.389Z,10.90
